Ana Sayfa
METAR-TAF:

METAR-TAF

Havaalanları :

Newport State Airport

Newport, Rhode Island, Amerika Birleşik Devletleri

Enlem: 41-31-48N, Boylam: 071-17-01W, yükseklik: 52 m

Güncel hava durumu gözlemi

Rapor saat 04:53 UTC de 44 dakika önce yapıldı.
Rüzgar kuzeydan 7 kt
Sıcaklık -3°C
Nem 42%
Basınç 1031 hPa
Görüş mesafesi: 16.1 km
Açık gökyüzü

METAR: KUUU 170453Z AUTO 01007KT 10SM CLR M03/M14 A3044 RMK AO2 SLP308 T10281139 400501028

Saat: 00:37 (05:37 UTC)


TAF: eksik

4.000'den fazla havaalanı için hava durumu gözlemleri ve tahminleri (METAR ve TAF raporları).

Kullanılabilir istasyonlar harita üzerinde sarı ve kırmızı noktalarla gösterilir.

İstasyonun adını görmek için fareyi noktanın üzerinde gezdirin.

Sonrasında hava gözlem ve tahminlerini görmek için tıklayın.

Haritayı değiştirmek için: yaklaştırmak için siyah artı işaretli yeşil düğmeye ve uzaklaştırmak için de eksi işaretli düğmeye hızla tıklayın; bitişik haritalar için yeşil okları kullanın.


METAR-TAF: